sensor_id;sensor_type;location;lat;lon;timestamp;temperature;humidity
12557;DHT22;6344;49.932;8.308;2023-04-16T00:02:14;9.00;99.90
12557;DHT22;6344;49.932;8.308;2023-04-16T00:04:40;9.00;99.90
12557;DHT22;6344;49.932;8.308;2023-04-16T00:07:07;9.00;99.90
12557;DHT22;6344;49.932;8.308;2023-04-16T00:09:35;9.00;99.90
12557;DHT22;6344;49.932;8.308;2023-04-16T00:12:02;9.00;99.90
12557;DHT22;6344;49.932;8.308;2023-04-16T00:14:29;9.00;99.90
12557;DHT22;6344;49.932;8.308;2023-04-16T00:16:55;9.00;99.90
12557;DHT22;6344;49.932;8.308;2023-04-16T00:19:22;9.00;99.90
12557;DHT22;6344;49.932;8.308;2023-04-16T00:21:49;9.00;99.90
12557;DHT22;6344;49.932;8.308;2023-04-16T00:24:15;9.00;99.90
12557;DHT22;6344;49.932;8.308;2023-04-16T00:26:43;8.90;99.90
12557;DHT22;6344;49.932;8.308;2023-04-16T00:29:10;8.90;99.90
12557;DHT22;6344;49.932;8.308;2023-04-16T00:31:37;8.90;99.90
12557;DHT22;6344;49.932;8.308;2023-04-16T00:34:04;9.00;99.90
12557;DHT22;6344;49.932;8.308;2023-04-16T00:36:31;9.00;99.90
12557;DHT22;6344;49.932;8.308;2023-04-16T00:38:57;8.90;99.90
12557;DHT22;6344;49.932;8.308;2023-04-16T00:41:24;9.00;99.90
12557;DHT22;6344;49.932;8.308;2023-04-16T00:43:52;9.00;99.90
12557;DHT22;6344;49.932;8.308;2023-04-16T00:46:21;8.90;99.90
12557;DHT22;6344;49.932;8.308;2023-04-16T00:48:50;8.90;99.90
12557;DHT22;6344;49.932;8.308;2023-04-16T00:51:18;8.90;99.90
12557;DHT22;6344;49.932;8.308;2023-04-16T00:53:46;9.00;99.90
12557;DHT22;6344;49.932;8.308;2023-04-16T00:56:13;8.90;99.90
12557;DHT22;6344;49.932;8.308;2023-04-16T00:58:39;8.90;99.90
12557;DHT22;6344;49.932;8.308;2023-04-16T01:01:07;8.90;99.90
12557;DHT22;6344;49.932;8.308;2023-04-16T01:03:37;8.90;99.90
12557;DHT22;6344;49.932;8.308;2023-04-16T01:06:05;8.90;99.90
12557;DHT22;6344;49.932;8.308;2023-04-16T01:08:31;8.90;99.90
12557;DHT22;6344;49.932;8.308;2023-04-16T01:10:58;8.90;99.90
12557;DHT22;6344;49.932;8.308;2023-04-16T01:13:25;8.90;99.90
12557;DHT22;6344;49.932;8.308;2023-04-16T01:15:51;8.90;99.90
12557;DHT22;6344;49.932;8.308;2023-04-16T01:18:20;8.90;99.90
12557;DHT22;6344;49.932;8.308;2023-04-16T01:20:48;8.90;99.90
12557;DHT22;6344;49.932;8.308;2023-04-16T01:23:16;8.90;99.90
12557;DHT22;6344;49.932;8.308;2023-04-16T01:25:43;8.90;99.90
12557;DHT22;6344;49.932;8.308;2023-04-16T01:28:10;8.90;99.90
12557;DHT22;6344;49.932;8.308;2023-04-16T01:30:37;8.90;99.90
12557;DHT22;6344;49.932;8.308;2023-04-16T01:33:04;8.90;99.90
12557;DHT22;6344;49.932;8.308;2023-04-16T01:35:32;8.80;99.90
12557;DHT22;6344;49.932;8.308;2023-04-16T01:38:00;8.90;99.90
12557;DHT22;6344;49.932;8.308;2023-04-16T01:40:27;8.90;99.90
12557;DHT22;6344;49.932;8.308;2023-04-16T01:42:53;8.90;99.90
12557;DHT22;6344;49.932;8.308;2023-04-16T01:45:20;8.90;99.90
12557;DHT22;6344;49.932;8.308;2023-04-16T01:47:48;8.90;99.90
12557;DHT22;6344;49.932;8.308;2023-04-16T01:50:15;8.90;99.90
12557;DHT22;6344;49.932;8.308;2023-04-16T01:52:42;8.90;99.90
12557;DHT22;6344;49.932;8.308;2023-04-16T01:55:10;8.90;99.90
12557;DHT22;6344;49.932;8.308;2023-04-16T01:57:36;8.90;99.90
12557;DHT22;6344;49.932;8.308;2023-04-16T02:00:04;8.90;99.90
12557;DHT22;6344;49.932;8.308;2023-04-16T02:02:31;8.80;99.90
12557;DHT22;6344;49.932;8.308;2023-04-16T02:04:58;8.90;99.90
12557;DHT22;6344;49.932;8.308;2023-04-16T02:07:25;9.00;99.90
12557;DHT22;6344;49.932;8.308;2023-04-16T02:09:52;9.00;99.90
12557;DHT22;6344;49.932;8.308;2023-04-16T02:12:20;9.00;99.90
12557;DHT22;6344;49.932;8.308;2023-04-16T02:14:46;9.00;99.90
12557;DHT22;6344;49.932;8.308;2023-04-16T02:17:13;8.90;99.90
12557;DHT22;6344;49.932;8.308;2023-04-16T02:19:41;9.00;99.90
12557;DHT22;6344;49.932;8.308;2023-04-16T02:22:08;8.90;99.90
12557;DHT22;6344;49.932;8.308;2023-04-16T02:24:34;9.00;99.90
12557;DHT22;6344;49.932;8.308;2023-04-16T02:27:01;9.00;99.90
12557;DHT22;6344;49.932;8.308;2023-04-16T02:29:29;9.10;99.90
12557;DHT22;6344;49.932;8.308;2023-04-16T02:31:56;9.10;99.90
12557;DHT22;6344;49.932;8.308;2023-04-16T02:34:24;9.10;99.90
12557;DHT22;6344;49.932;8.308;2023-04-16T02:36:50;9.00;99.90
12557;DHT22;6344;49.932;8.308;2023-04-16T02:39:18;9.00;99.90
12557;DHT22;6344;49.932;8.308;2023-04-16T02:41:45;9.00;99.90
12557;DHT22;6344;49.932;8.308;2023-04-16T02:44:11;9.10;99.90
12557;DHT22;6344;49.932;8.308;2023-04-16T02:46:39;9.00;99.90
12557;DHT22;6344;49.932;8.308;2023-04-16T02:49:06;9.00;99.90
12557;DHT22;6344;49.932;8.308;2023-04-16T02:51:32;9.00;99.90
12557;DHT22;6344;49.932;8.308;2023-04-16T02:53:59;9.00;99.90
12557;DHT22;6344;49.932;8.308;2023-04-16T02:56:27;9.00;99.90
12557;DHT22;6344;49.932;8.308;2023-04-16T02:58:54;9.00;99.90
12557;DHT22;6344;49.932;8.308;2023-04-16T03:01:20;9.00;99.90
12557;DHT22;6344;49.932;8.308;2023-04-16T03:03:48;9.00;99.90
12557;DHT22;6344;49.932;8.308;2023-04-16T03:06:15;9.00;99.90
12557;DHT22;6344;49.932;8.308;2023-04-16T03:08:41;9.00;99.90
12557;DHT22;6344;49.932;8.308;2023-04-16T03:11:08;9.00;99.90
12557;DHT22;6344;49.932;8.308;2023-04-16T03:13:35;9.00;99.90
12557;DHT22;6344;49.932;8.308;2023-04-16T03:16:01;9.00;99.90
12557;DHT22;6344;49.932;8.308;2023-04-16T03:18:28;9.00;99.90
12557;DHT22;6344;49.932;8.308;2023-04-16T03:20:56;9.00;99.90
12557;DHT22;6344;49.932;8.308;2023-04-16T03:23:23;9.00;99.90
12557;DHT22;6344;49.932;8.308;2023-04-16T03:25:49;9.00;99.90
12557;DHT22;6344;49.932;8.308;2023-04-16T03:28:16;9.00;99.90
12557;DHT22;6344;49.932;8.308;2023-04-16T03:30:42;9.00;99.90
12557;DHT22;6344;49.932;8.308;2023-04-16T03:33:15;9.00;99.90
12557;DHT22;6344;49.932;8.308;2023-04-16T03:35:41;9.00;99.90
12557;DHT22;6344;49.932;8.308;2023-04-16T03:38:09;9.00;99.90
12557;DHT22;6344;49.932;8.308;2023-04-16T03:40:36;9.00;99.90
12557;DHT22;6344;49.932;8.308;2023-04-16T03:43:04;9.10;99.90
12557;DHT22;6344;49.932;8.308;2023-04-16T03:45:30;9.20;99.90
12557;DHT22;6344;49.932;8.308;2023-04-16T03:47:57;9.20;99.90
12557;DHT22;6344;49.932;8.308;2023-04-16T03:50:23;9.10;99.90
12557;DHT22;6344;49.932;8.308;2023-04-16T03:52:50;9.10;99.90
12557;DHT22;6344;49.932;8.308;2023-04-16T03:55:18;9.10;99.90
12557;DHT22;6344;49.932;8.308;2023-04-16T03:57:45;9.10;99.90
12557;DHT22;6344;49.932;8.308;2023-04-16T04:00:11;9.10;99.90
12557;DHT22;6344;49.932;8.308;2023-04-16T04:02:38;9.10;99.90
12557;DHT22;6344;49.932;8.308;2023-04-16T04:05:05;9.10;99.90
12557;DHT22;6344;49.932;8.308;2023-04-16T04:07:32;9.10;99.90
12557;DHT22;6344;49.932;8.308;2023-04-16T04:09:59;9.10;99.90
12557;DHT22;6344;49.932;8.308;2023-04-16T04:12:27;9.20;99.90
12557;DHT22;6344;49.932;8.308;2023-04-16T04:14:53;9.00;99.90
12557;DHT22;6344;49.932;8.308;2023-04-16T04:17:20;9.20;99.90
12557;DHT22;6344;49.932;8.308;2023-04-16T04:19:47;9.20;99.90
12557;DHT22;6344;49.932;8.308;2023-04-16T04:22:13;9.10;99.90
12557;DHT22;6344;49.932;8.308;2023-04-16T04:24:40;9.10;99.90
12557;DHT22;6344;49.932;8.308;2023-04-16T04:27:06;9.20;99.90
12557;DHT22;6344;49.932;8.308;2023-04-16T04:29:34;9.20;99.90
12557;DHT22;6344;49.932;8.308;2023-04-16T04:32:01;9.20;99.90
12557;DHT22;6344;49.932;8.308;2023-04-16T04:34:28;9.20;99.90
12557;DHT22;6344;49.932;8.308;2023-04-16T04:36:54;9.20;99.90
12557;DHT22;6344;49.932;8.308;2023-04-16T04:39:21;9.10;99.90
12557;DHT22;6344;49.932;8.308;2023-04-16T04:41:48;9.20;99.90
12557;DHT22;6344;49.932;8.308;2023-04-16T04:44:14;9.20;99.90
12557;DHT22;6344;49.932;8.308;2023-04-16T04:46:42;9.10;99.90
12557;DHT22;6344;49.932;8.308;2023-04-16T04:49:09;9.20;99.90
12557;DHT22;6344;49.932;8.308;2023-04-16T04:51:35;9.20;99.90
12557;DHT22;6344;49.932;8.308;2023-04-16T04:54:02;9.20;99.90
12557;DHT22;6344;49.932;8.308;2023-04-16T04:56:29;9.20;99.90
12557;DHT22;6344;49.932;8.308;2023-04-16T04:58:55;9.20;99.90
12557;DHT22;6344;49.932;8.308;2023-04-16T05:01:22;9.20;99.90
12557;DHT22;6344;49.932;8.308;2023-04-16T05:03:50;9.20;99.90
12557;DHT22;6344;49.932;8.308;2023-04-16T05:06:17;9.20;99.90
12557;DHT22;6344;49.932;8.308;2023-04-16T05:08:43;9.20;99.90
12557;DHT22;6344;49.932;8.308;2023-04-16T05:11:10;9.20;99.90
12557;DHT22;6344;49.932;8.308;2023-04-16T05:13:36;9.30;99.90
12557;DHT22;6344;49.932;8.308;2023-04-16T05:16:04;9.20;99.90
12557;DHT22;6344;49.932;8.308;2023-04-16T05:18:30;9.30;99.90
12557;DHT22;6344;49.932;8.308;2023-04-16T05:20:59;9.20;99.90
12557;DHT22;6344;49.932;8.308;2023-04-16T05:23:25;9.20;99.90
12557;DHT22;6344;49.932;8.308;2023-04-16T05:25:52;9.30;99.90
12557;DHT22;6344;49.932;8.308;2023-04-16T05:28:18;9.30;99.90
12557;DHT22;6344;49.932;8.308;2023-04-16T05:30:45;9.30;99.90
12557;DHT22;6344;49.932;8.308;2023-04-16T05:33:12;9.30;99.90
12557;DHT22;6344;49.932;8.308;2023-04-16T05:35:38;9.30;99.90
12557;DHT22;6344;49.932;8.308;2023-04-16T05:38:06;9.20;99.90
12557;DHT22;6344;49.932;8.308;2023-04-16T05:40:33;9.30;99.90
12557;DHT22;6344;49.932;8.308;2023-04-16T05:42:59;9.20;99.90
12557;DHT22;6344;49.932;8.308;2023-04-16T05:45:26;9.20;99.90
12557;DHT22;6344;49.932;8.308;2023-04-16T05:47:53;9.20;99.90
12557;DHT22;6344;49.932;8.308;2023-04-16T05:50:19;9.10;99.90
12557;DHT22;6344;49.932;8.308;2023-04-16T05:52:46;9.10;99.90
12557;DHT22;6344;49.932;8.308;2023-04-16T05:55:14;9.10;99.90
12557;DHT22;6344;49.932;8.308;2023-04-16T05:57:40;9.10;99.90
12557;DHT22;6344;49.932;8.308;2023-04-16T06:00:08;9.10;99.90
12557;DHT22;6344;49.932;8.308;2023-04-16T06:02:34;9.20;99.90
12557;DHT22;6344;49.932;8.308;2023-04-16T06:05:01;9.20;99.90
12557;DHT22;6344;49.932;8.308;2023-04-16T06:07:28;9.30;99.90
12557;DHT22;6344;49.932;8.308;2023-04-16T06:09:54;9.20;99.90
12557;DHT22;6344;49.932;8.308;2023-04-16T06:12:22;9.20;99.90
12557;DHT22;6344;49.932;8.308;2023-04-16T06:14:49;9.30;99.90
12557;DHT22;6344;49.932;8.308;2023-04-16T06:17:16;9.40;99.90
12557;DHT22;6344;49.932;8.308;2023-04-16T06:19:43;9.40;99.90
12557;DHT22;6344;49.932;8.308;2023-04-16T06:22:10;9.40;99.90
12557;DHT22;6344;49.932;8.308;2023-04-16T06:24:37;9.50;99.90
12557;DHT22;6344;49.932;8.308;2023-04-16T06:27:03;9.50;99.90
12557;DHT22;6344;49.932;8.308;2023-04-16T06:29:31;9.50;99.90
12557;DHT22;6344;49.932;8.308;2023-04-16T06:31:58;9.50;99.90
12557;DHT22;6344;49.932;8.308;2023-04-16T06:34:26;9.40;99.90
12557;DHT22;6344;49.932;8.308;2023-04-16T06:36:53;9.40;99.90
12557;DHT22;6344;49.932;8.308;2023-04-16T06:39:19;9.50;99.90
12557;DHT22;6344;49.932;8.308;2023-04-16T06:41:46;9.50;99.90
12557;DHT22;6344;49.932;8.308;2023-04-16T06:44:13;9.50;99.90
12557;DHT22;6344;49.932;8.308;2023-04-16T06:46:41;9.60;99.90
12557;DHT22;6344;49.932;8.308;2023-04-16T06:49:08;9.60;99.90
12557;DHT22;6344;49.932;8.308;2023-04-16T06:51:34;9.60;99.90
12557;DHT22;6344;49.932;8.308;2023-04-16T06:54:01;9.60;99.90
12557;DHT22;6344;49.932;8.308;2023-04-16T06:56:27;9.60;99.90
12557;DHT22;6344;49.932;8.308;2023-04-16T06:58:54;9.60;99.90
12557;DHT22;6344;49.932;8.308;2023-04-16T07:01:23;9.50;99.90
12557;DHT22;6344;49.932;8.308;2023-04-16T07:03:51;9.50;99.90
12557;DHT22;6344;49.932;8.308;2023-04-16T07:06:18;9.50;99.90
12557;DHT22;6344;49.932;8.308;2023-04-16T07:08:44;9.30;99.90
12557;DHT22;6344;49.932;8.308;2023-04-16T07:11:11;9.30;99.90
12557;DHT22;6344;49.932;8.308;2023-04-16T07:13:38;9.20;99.90
12557;DHT22;6344;49.932;8.308;2023-04-16T07:16:04;9.10;99.90
12557;DHT22;6344;49.932;8.308;2023-04-16T07:18:31;9.10;99.90
12557;DHT22;6344;49.932;8.308;2023-04-16T07:20:59;9.00;99.90
12557;DHT22;6344;49.932;8.308;2023-04-16T07:23:26;8.90;99.90
12557;DHT22;6344;49.932;8.308;2023-04-16T07:25:53;8.80;99.90
12557;DHT22;6344;49.932;8.308;2023-04-16T07:28:19;8.80;99.90
12557;DHT22;6344;49.932;8.308;2023-04-16T07:30:46;8.80;99.90
12557;DHT22;6344;49.932;8.308;2023-04-16T07:33:13;8.80;99.90
12557;DHT22;6344;49.932;8.308;2023-04-16T07:35:39;8.80;99.90
12557;DHT22;6344;49.932;8.308;2023-04-16T07:38:07;8.80;99.90
12557;DHT22;6344;49.932;8.308;2023-04-16T07:40:35;8.80;99.90
12557;DHT22;6344;49.932;8.308;2023-04-16T07:43:01;8.80;99.90
12557;DHT22;6344;49.932;8.308;2023-04-16T07:45:28;8.80;99.90
12557;DHT22;6344;49.932;8.308;2023-04-16T07:47:55;8.90;99.90
12557;DHT22;6344;49.932;8.308;2023-04-16T07:50:21;8.90;99.90
12557;DHT22;6344;49.932;8.308;2023-04-16T07:52:48;8.90;99.90
12557;DHT22;6344;49.932;8.308;2023-04-16T07:55:16;8.90;99.90
12557;DHT22;6344;49.932;8.308;2023-04-16T07:57:43;8.90;99.90
12557;DHT22;6344;49.932;8.308;2023-04-16T08:00:10;8.90;99.90
12557;DHT22;6344;49.932;8.308;2023-04-16T08:02:37;8.90;99.90
12557;DHT22;6344;49.932;8.308;2023-04-16T08:05:04;9.00;99.90
12557;DHT22;6344;49.932;8.308;2023-04-16T08:07:31;9.00;99.90
12557;DHT22;6344;49.932;8.308;2023-04-16T08:09:57;9.10;99.90
12557;DHT22;6344;49.932;8.308;2023-04-16T08:12:25;9.10;99.90
12557;DHT22;6344;49.932;8.308;2023-04-16T08:14:52;9.10;99.90
12557;DHT22;6344;49.932;8.308;2023-04-16T08:17:18;9.10;99.90
12557;DHT22;6344;49.932;8.308;2023-04-16T08:19:45;9.10;99.90
12557;DHT22;6344;49.932;8.308;2023-04-16T08:22:12;9.20;99.90
12557;DHT22;6344;49.932;8.308;2023-04-16T08:24:39;9.20;99.90
12557;DHT22;6344;49.932;8.308;2023-04-16T08:27:05;9.30;99.90
12557;DHT22;6344;49.932;8.308;2023-04-16T08:29:33;9.30;99.90
12557;DHT22;6344;49.932;8.308;2023-04-16T08:32:00;9.40;99.90
12557;DHT22;6344;49.932;8.308;2023-04-16T08:34:27;9.40;99.90
12557;DHT22;6344;49.932;8.308;2023-04-16T08:36:53;9.40;99.90
12557;DHT22;6344;49.932;8.308;2023-04-16T08:39:20;9.40;99.90
12557;DHT22;6344;49.932;8.308;2023-04-16T08:41:47;9.50;99.90
12557;DHT22;6344;49.932;8.308;2023-04-16T08:44:19;9.50;99.90
12557;DHT22;6344;49.932;8.308;2023-04-16T08:46:48;9.40;99.90
12557;DHT22;6344;49.932;8.308;2023-04-16T08:49:16;9.50;99.90
12557;DHT22;6344;49.932;8.308;2023-04-16T08:51:48;9.50;99.90
12557;DHT22;6344;49.932;8.308;2023-04-16T08:54:22;9.50;99.90
12557;DHT22;6344;49.932;8.308;2023-04-16T08:56:52;9.50;99.90
12557;DHT22;6344;49.932;8.308;2023-04-16T08:59:19;9.60;99.90
12557;DHT22;6344;49.932;8.308;2023-04-16T09:01:48;9.70;99.90
12557;DHT22;6344;49.932;8.308;2023-04-16T09:04:16;9.60;99.90
12557;DHT22;6344;49.932;8.308;2023-04-16T09:06:45;9.60;99.90
12557;DHT22;6344;49.932;8.308;2023-04-16T09:09:13;9.70;99.90
12557;DHT22;6344;49.932;8.308;2023-04-16T09:11:41;9.70;99.90
12557;DHT22;6344;49.932;8.308;2023-04-16T09:14:09;9.60;99.90
12557;DHT22;6344;49.932;8.308;2023-04-16T09:16:36;9.70;99.90
12557;DHT22;6344;49.932;8.308;2023-04-16T09:19:05;9.70;99.90
12557;DHT22;6344;49.932;8.308;2023-04-16T09:21:32;9.80;99.90
12557;DHT22;6344;49.932;8.308;2023-04-16T09:23:59;9.90;99.90
12557;DHT22;6344;49.932;8.308;2023-04-16T09:26:26;10.00;99.90
12557;DHT22;6344;49.932;8.308;2023-04-16T09:28:53;10.10;99.90
12557;DHT22;6344;49.932;8.308;2023-04-16T09:31:20;10.20;99.90
12557;DHT22;6344;49.932;8.308;2023-04-16T09:34:00;10.30;99.90
12557;DHT22;6344;49.932;8.308;2023-04-16T09:36:29;10.40;99.90
12557;DHT22;6344;49.932;8.308;2023-04-16T09:38:55;10.60;99.90
12557;DHT22;6344;49.932;8.308;2023-04-16T09:41:24;10.70;99.90
12557;DHT22;6344;49.932;8.308;2023-04-16T09:43:55;10.80;99.90
12557;DHT22;6344;49.932;8.308;2023-04-16T09:46:23;10.70;99.90
12557;DHT22;6344;49.932;8.308;2023-04-16T09:48:51;10.70;99.90
12557;DHT22;6344;49.932;8.308;2023-04-16T09:51:17;10.50;99.90
12557;DHT22;6344;49.932;8.308;2023-04-16T09:53:45;10.60;99.90
12557;DHT22;6344;49.932;8.308;2023-04-16T09:56:12;10.80;99.90
12557;DHT22;6344;49.932;8.308;2023-04-16T09:58:39;10.80;99.90
12557;DHT22;6344;49.932;8.308;2023-04-16T10:01:07;10.70;99.90
12557;DHT22;6344;49.932;8.308;2023-04-16T10:03:35;11.00;99.90
12557;DHT22;6344;49.932;8.308;2023-04-16T10:06:07;11.10;99.90
12557;DHT22;6344;49.932;8.308;2023-04-16T10:08:34;11.00;99.90
12557;DHT22;6344;49.932;8.308;2023-04-16T10:11:02;10.90;99.90
12557;DHT22;6344;49.932;8.308;2023-04-16T10:13:30;10.90;99.90
12557;DHT22;6344;49.932;8.308;2023-04-16T10:15:57;10.80;99.90
12557;DHT22;6344;49.932;8.308;2023-04-16T10:18:24;10.80;99.90
12557;DHT22;6344;49.932;8.308;2023-04-16T10:20:51;10.80;99.90
12557;DHT22;6344;49.932;8.308;2023-04-16T10:23:19;10.80;99.90
12557;DHT22;6344;49.932;8.308;2023-04-16T10:25:47;10.70;99.90
12557;DHT22;6344;49.932;8.308;2023-04-16T10:28:15;10.80;99.90
12557;DHT22;6344;49.932;8.308;2023-04-16T10:30:44;10.90;99.90
12557;DHT22;6344;49.932;8.308;2023-04-16T10:33:19;10.90;99.90
12557;DHT22;6344;49.932;8.308;2023-04-16T10:35:46;11.10;99.90
12557;DHT22;6344;49.932;8.308;2023-04-16T10:38:23;11.10;99.90
12557;DHT22;6344;49.932;8.308;2023-04-16T10:40:57;11.20;99.90
12557;DHT22;6344;49.932;8.308;2023-04-16T10:43:27;11.40;99.90
12557;DHT22;6344;49.932;8.308;2023-04-16T10:45:53;11.50;99.90
12557;DHT22;6344;49.932;8.308;2023-04-16T10:48:22;11.60;99.90
12557;DHT22;6344;49.932;8.308;2023-04-16T10:50:56;11.80;99.90
12557;DHT22;6344;49.932;8.308;2023-04-16T10:53:25;12.10;99.90
12557;DHT22;6344;49.932;8.308;2023-04-16T10:55:56;12.00;99.90
12557;DHT22;6344;49.932;8.308;2023-04-16T10:58:28;12.10;99.90
12557;DHT22;6344;49.932;8.308;2023-04-16T11:00:58;12.10;99.90
12557;DHT22;6344;49.932;8.308;2023-04-16T11:03:24;12.00;99.90
12557;DHT22;6344;49.932;8.308;2023-04-16T11:05:51;11.70;99.90
12557;DHT22;6344;49.932;8.308;2023-04-16T11:08:18;11.50;99.90
12557;DHT22;6344;49.932;8.308;2023-04-16T11:10:45;11.40;99.90
12557;DHT22;6344;49.932;8.308;2023-04-16T11:13:12;11.30;99.90
12557;DHT22;6344;49.932;8.308;2023-04-16T11:15:40;11.10;99.90
12557;DHT22;6344;49.932;8.308;2023-04-16T11:18:08;11.00;99.90
12557;DHT22;6344;49.932;8.308;2023-04-16T11:20:35;10.90;99.90
12557;DHT22;6344;49.932;8.308;2023-04-16T11:23:09;10.80;99.90
12557;DHT22;6344;49.932;8.308;2023-04-16T11:25:37;10.70;99.90
12557;DHT22;6344;49.932;8.308;2023-04-16T11:28:04;10.80;99.90
12557;DHT22;6344;49.932;8.308;2023-04-16T11:30:32;10.80;99.90
12557;DHT22;6344;49.932;8.308;2023-04-16T11:33:02;10.90;99.90
12557;DHT22;6344;49.932;8.308;2023-04-16T11:35:29;10.90;99.90
12557;DHT22;6344;49.932;8.308;2023-04-16T11:37:56;10.90;99.90
12557;DHT22;6344;49.932;8.308;2023-04-16T11:40:23;10.90;99.90
12557;DHT22;6344;49.932;8.308;2023-04-16T11:42:50;10.90;99.90
12557;DHT22;6344;49.932;8.308;2023-04-16T11:45:17;10.90;99.90
12557;DHT22;6344;49.932;8.308;2023-04-16T11:47:45;10.80;99.90
12557;DHT22;6344;49.932;8.308;2023-04-16T11:50:18;10.80;99.90
12557;DHT22;6344;49.932;8.308;2023-04-16T11:52:46;10.90;99.90
12557;DHT22;6344;49.932;8.308;2023-04-16T11:55:13;11.00;99.90
12557;DHT22;6344;49.932;8.308;2023-04-16T11:57:40;11.00;99.90
12557;DHT22;6344;49.932;8.308;2023-04-16T12:00:07;11.10;99.90
12557;DHT22;6344;49.932;8.308;2023-04-16T12:02:36;11.30;99.90
12557;DHT22;6344;49.932;8.308;2023-04-16T12:05:05;11.40;99.90
12557;DHT22;6344;49.932;8.308;2023-04-16T12:07:44;11.60;99.90
12557;DHT22;6344;49.932;8.308;2023-04-16T12:10:11;11.80;99.90
12557;DHT22;6344;49.932;8.308;2023-04-16T12:12:37;11.70;99.90
12557;DHT22;6344;49.932;8.308;2023-04-16T12:15:05;11.80;99.90
12557;DHT22;6344;49.932;8.308;2023-04-16T12:17:33;11.70;99.90
12557;DHT22;6344;49.932;8.308;2023-04-16T12:20:02;11.80;99.90
12557;DHT22;6344;49.932;8.308;2023-04-16T12:22:32;11.80;99.90
12557;DHT22;6344;49.932;8.308;2023-04-16T12:25:02;12.00;99.90
12557;DHT22;6344;49.932;8.308;2023-04-16T12:27:43;12.10;99.90
12557;DHT22;6344;49.932;8.308;2023-04-16T12:30:11;12.00;99.90
12557;DHT22;6344;49.932;8.308;2023-04-16T12:32:39;12.00;99.90
12557;DHT22;6344;49.932;8.308;2023-04-16T12:35:06;12.20;99.90
12557;DHT22;6344;49.932;8.308;2023-04-16T12:37:33;12.00;99.90
12557;DHT22;6344;49.932;8.308;2023-04-16T12:40:02;12.00;99.90
12557;DHT22;6344;49.932;8.308;2023-04-16T12:42:30;12.00;99.90
12557;DHT22;6344;49.932;8.308;2023-04-16T12:45:00;11.90;99.90
12557;DHT22;6344;49.932;8.308;2023-04-16T12:47:27;11.90;99.90
12557;DHT22;6344;49.932;8.308;2023-04-16T12:49:55;12.00;99.90
12557;DHT22;6344;49.932;8.308;2023-04-16T12:52:21;12.00;99.90
12557;DHT22;6344;49.932;8.308;2023-04-16T12:54:48;11.90;99.90
12557;DHT22;6344;49.932;8.308;2023-04-16T12:57:16;12.00;99.90
12557;DHT22;6344;49.932;8.308;2023-04-16T12:59:43;12.10;99.90
12557;DHT22;6344;49.932;8.308;2023-04-16T13:02:10;12.10;99.90
12557;DHT22;6344;49.932;8.308;2023-04-16T13:04:37;12.10;99.90
12557;DHT22;6344;49.932;8.308;2023-04-16T13:07:04;12.30;99.90
12557;DHT22;6344;49.932;8.308;2023-04-16T13:09:30;12.40;99.90
12557;DHT22;6344;49.932;8.308;2023-04-16T13:11:57;12.40;99.90
12557;DHT22;6344;49.932;8.308;2023-04-16T13:14:25;12.70;99.90
12557;DHT22;6344;49.932;8.308;2023-04-16T13:16:51;12.70;99.90
12557;DHT22;6344;49.932;8.308;2023-04-16T13:19:18;12.80;99.90
12557;DHT22;6344;49.932;8.308;2023-04-16T13:21:45;12.70;99.90
12557;DHT22;6344;49.932;8.308;2023-04-16T13:24:12;13.00;99.90
12557;DHT22;6344;49.932;8.308;2023-04-16T13:26:38;12.90;99.90
12557;DHT22;6344;49.932;8.308;2023-04-16T13:29:05;13.10;99.90
12557;DHT22;6344;49.932;8.308;2023-04-16T13:31:33;13.30;99.90
12557;DHT22;6344;49.932;8.308;2023-04-16T13:34:00;13.40;99.90
12557;DHT22;6344;49.932;8.308;2023-04-16T13:36:27;13.60;99.90
12557;DHT22;6344;49.932;8.308;2023-04-16T13:38:54;13.80;99.90
12557;DHT22;6344;49.932;8.308;2023-04-16T13:41:21;13.80;99.90
12557;DHT22;6344;49.932;8.308;2023-04-16T13:43:47;14.00;99.90
12557;DHT22;6344;49.932;8.308;2023-04-16T13:46:14;13.90;99.90
12557;DHT22;6344;49.932;8.308;2023-04-16T13:48:42;14.00;99.90
12557;DHT22;6344;49.932;8.308;2023-04-16T13:51:08;14.40;99.90
12557;DHT22;6344;49.932;8.308;2023-04-16T13:53:35;14.50;99.90
12557;DHT22;6344;49.932;8.308;2023-04-16T13:56:02;14.70;99.90
12557;DHT22;6344;49.932;8.308;2023-04-16T13:58:29;14.60;99.90
12557;DHT22;6344;49.932;8.308;2023-04-16T14:00:55;14.60;99.90
12557;DHT22;6344;49.932;8.308;2023-04-16T14:03:24;14.60;99.90
12557;DHT22;6344;49.932;8.308;2023-04-16T14:05:52;14.60;99.90
12557;DHT22;6344;49.932;8.308;2023-04-16T14:08:19;14.50;99.90
12557;DHT22;6344;49.932;8.308;2023-04-16T14:10:46;14.50;99.90
12557;DHT22;6344;49.932;8.308;2023-04-16T14:13:13;14.70;99.90
12557;DHT22;6344;49.932;8.308;2023-04-16T14:15:40;14.50;99.90
12557;DHT22;6344;49.932;8.308;2023-04-16T14:18:07;14.40;99.90
12557;DHT22;6344;49.932;8.308;2023-04-16T14:20:33;14.80;99.90
12557;DHT22;6344;49.932;8.308;2023-04-16T14:23:01;14.60;99.90
12557;DHT22;6344;49.932;8.308;2023-04-16T14:25:28;14.60;99.90
12557;DHT22;6344;49.932;8.308;2023-04-16T14:27:55;14.70;99.90
12557;DHT22;6344;49.932;8.308;2023-04-16T14:30:21;14.90;99.90
12557;DHT22;6344;49.932;8.308;2023-04-16T14:32:48;14.80;99.90
12557;DHT22;6344;49.932;8.308;2023-04-16T14:35:15;15.10;99.90
12557;DHT22;6344;49.932;8.308;2023-04-16T14:37:42;15.00;99.90
12557;DHT22;6344;49.932;8.308;2023-04-16T14:40:11;15.10;99.90
12557;DHT22;6344;49.932;8.308;2023-04-16T14:42:38;15.10;99.90
12557;DHT22;6344;49.932;8.308;2023-04-16T14:45:06;15.00;99.90
12557;DHT22;6344;49.932;8.308;2023-04-16T14:47:33;15.00;99.90
12557;DHT22;6344;49.932;8.308;2023-04-16T14:50:00;15.00;99.90
12557;DHT22;6344;49.932;8.308;2023-04-16T14:52:26;15.30;99.90
12557;DHT22;6344;49.932;8.308;2023-04-16T14:54:53;15.40;99.90
12557;DHT22;6344;49.932;8.308;2023-04-16T14:57:21;15.50;99.90
12557;DHT22;6344;49.932;8.308;2023-04-16T14:59:49;15.60;99.90
12557;DHT22;6344;49.932;8.308;2023-04-16T15:02:16;16.00;99.90
12557;DHT22;6344;49.932;8.308;2023-04-16T15:04:42;15.90;99.90
12557;DHT22;6344;49.932;8.308;2023-04-16T15:07:09;16.20;99.90
12557;DHT22;6344;49.932;8.308;2023-04-16T15:09:36;16.40;99.90
12557;DHT22;6344;49.932;8.308;2023-04-16T15:12:02;16.10;99.90
12557;DHT22;6344;49.932;8.308;2023-04-16T15:14:30;15.60;99.90
12557;DHT22;6344;49.932;8.308;2023-04-16T15:16:57;15.80;99.90
12557;DHT22;6344;49.932;8.308;2023-04-16T15:19:24;16.20;99.90
12557;DHT22;6344;49.932;8.308;2023-04-16T15:21:51;16.70;99.90
12557;DHT22;6344;49.932;8.308;2023-04-16T15:24:18;17.30;99.90
12557;DHT22;6344;49.932;8.308;2023-04-16T15:26:44;17.40;99.90
12557;DHT22;6344;49.932;8.308;2023-04-16T15:29:11;17.40;99.90
12557;DHT22;6344;49.932;8.308;2023-04-16T15:31:39;16.20;99.90
12557;DHT22;6344;49.932;8.308;2023-04-16T15:34:05;15.90;99.90
12557;DHT22;6344;49.932;8.308;2023-04-16T15:36:32;15.30;99.90
12557;DHT22;6344;49.932;8.308;2023-04-16T15:38:59;15.30;99.90
12557;DHT22;6344;49.932;8.308;2023-04-16T15:41:28;15.30;99.90
12557;DHT22;6344;49.932;8.308;2023-04-16T15:43:54;15.10;99.90
12557;DHT22;6344;49.932;8.308;2023-04-16T15:46:21;14.90;99.90
12557;DHT22;6344;49.932;8.308;2023-04-16T15:48:49;14.70;99.90
12557;DHT22;6344;49.932;8.308;2023-04-16T15:51:16;14.80;99.90
12557;DHT22;6344;49.932;8.308;2023-04-16T15:53:42;14.90;99.90
12557;DHT22;6344;49.932;8.308;2023-04-16T15:56:09;15.10;99.90